sensor_id;sensor_type;location;lat;lon;timestamp;temperature;humidity
610;DHT22;292;48.800;9.216;2022-11-15T00:00:31;12.00;76.00
610;DHT22;292;48.800;9.216;2022-11-15T00:02:58;12.00;76.00
610;DHT22;292;48.800;9.216;2022-11-15T00:05:26;12.00;76.00
610;DHT22;292;48.800;9.216;2022-11-15T00:07:53;12.00;76.10
610;DHT22;292;48.800;9.216;2022-11-15T00:10:21;12.00;76.00
610;DHT22;292;48.800;9.216;2022-11-15T00:12:48;12.10;76.00
610;DHT22;292;48.800;9.216;2022-11-15T00:15:16;12.00;75.80
610;DHT22;292;48.800;9.216;2022-11-15T00:17:43;12.00;75.70
610;DHT22;292;48.800;9.216;2022-11-15T00:20:10;12.10;75.50
610;DHT22;292;48.800;9.216;2022-11-15T00:22:38;12.10;75.40
610;DHT22;292;48.800;9.216;2022-11-15T00:25:06;12.10;75.40
610;DHT22;292;48.800;9.216;2022-11-15T00:27:35;12.10;75.40
610;DHT22;292;48.800;9.216;2022-11-15T00:30:03;12.20;75.40
610;DHT22;292;48.800;9.216;2022-11-15T00:32:31;12.20;75.40
610;DHT22;292;48.800;9.216;2022-11-15T00:34:58;12.20;75.50
610;DHT22;292;48.800;9.216;2022-11-15T00:37:25;12.20;75.50
610;DHT22;292;48.800;9.216;2022-11-15T00:39:52;12.20;75.50
610;DHT22;292;48.800;9.216;2022-11-15T00:42:19;12.20;75.70
610;DHT22;292;48.800;9.216;2022-11-15T00:44:48;12.20;75.70
610;DHT22;292;48.800;9.216;2022-11-15T00:47:15;12.20;75.70
610;DHT22;292;48.800;9.216;2022-11-15T00:49:42;12.20;75.80
610;DHT22;292;48.800;9.216;2022-11-15T00:52:09;12.20;75.80
610;DHT22;292;48.800;9.216;2022-11-15T00:54:35;12.20;75.70
610;DHT22;292;48.800;9.216;2022-11-15T00:57:03;12.20;75.70
610;DHT22;292;48.800;9.216;2022-11-15T00:59:30;12.10;75.50
610;DHT22;292;48.800;9.216;2022-11-15T01:01:58;12.10;75.40
610;DHT22;292;48.800;9.216;2022-11-15T01:04:25;12.10;75.40
610;DHT22;292;48.800;9.216;2022-11-15T01:06:52;12.10;75.20
610;DHT22;292;48.800;9.216;2022-11-15T01:09:19;12.10;75.40
610;DHT22;292;48.800;9.216;2022-11-15T01:11:46;12.00;75.40
610;DHT22;292;48.800;9.216;2022-11-15T01:14:13;12.00;75.50
610;DHT22;292;48.800;9.216;2022-11-15T01:16:42;12.00;75.50
610;DHT22;292;48.800;9.216;2022-11-15T01:19:10;12.10;75.50
610;DHT22;292;48.800;9.216;2022-11-15T01:21:37;12.10;75.40
610;DHT22;292;48.800;9.216;2022-11-15T01:24:05;12.10;75.50
610;DHT22;292;48.800;9.216;2022-11-15T01:26:32;12.00;75.70
610;DHT22;292;48.800;9.216;2022-11-15T01:28:59;12.00;75.80
610;DHT22;292;48.800;9.216;2022-11-15T01:31:25;12.00;75.80
610;DHT22;292;48.800;9.216;2022-11-15T01:33:52;12.00;75.80
610;DHT22;292;48.800;9.216;2022-11-15T01:36:22;11.90;76.00
610;DHT22;292;48.800;9.216;2022-11-15T01:38:53;11.90;76.10
610;DHT22;292;48.800;9.216;2022-11-15T01:41:23;11.90;76.20
610;DHT22;292;48.800;9.216;2022-11-15T01:43:53;11.90;76.20
610;DHT22;292;48.800;9.216;2022-11-15T01:46:26;11.80;76.20
610;DHT22;292;48.800;9.216;2022-11-15T01:48:55;11.80;76.70
610;DHT22;292;48.800;9.216;2022-11-15T01:51:27;11.80;77.00
610;DHT22;292;48.800;9.216;2022-11-15T01:54:00;11.70;77.10
610;DHT22;292;48.800;9.216;2022-11-15T01:56:31;11.70;77.30
610;DHT22;292;48.800;9.216;2022-11-15T01:59:03;11.60;77.50
610;DHT22;292;48.800;9.216;2022-11-15T02:01:33;11.60;77.80
610;DHT22;292;48.800;9.216;2022-11-15T02:04:04;11.60;77.80
610;DHT22;292;48.800;9.216;2022-11-15T02:06:36;11.60;77.80
610;DHT22;292;48.800;9.216;2022-11-15T02:09:03;11.60;78.00
610;DHT22;292;48.800;9.216;2022-11-15T02:11:30;11.50;78.00
610;DHT22;292;48.800;9.216;2022-11-15T02:13:59;11.50;78.00
610;DHT22;292;48.800;9.216;2022-11-15T02:16:32;11.50;78.00
610;DHT22;292;48.800;9.216;2022-11-15T02:19:08;11.50;78.10
610;DHT22;292;48.800;9.216;2022-11-15T02:21:46;11.40;78.30
610;DHT22;292;48.800;9.216;2022-11-15T02:24:51;11.40;78.30
610;DHT22;292;48.800;9.216;2022-11-15T02:30:37;11.40;78.40
610;DHT22;292;48.800;9.216;2022-11-15T02:33:17;11.30;78.40
610;DHT22;292;48.800;9.216;2022-11-15T02:35:52;11.30;78.40
610;DHT22;292;48.800;9.216;2022-11-15T02:38:30;11.30;78.60
610;DHT22;292;48.800;9.216;2022-11-15T02:41:01;11.20;78.60
610;DHT22;292;48.800;9.216;2022-11-15T02:43:33;11.20;78.70
610;DHT22;292;48.800;9.216;2022-11-15T02:46:26;11.20;78.70
610;DHT22;292;48.800;9.216;2022-11-15T02:49:09;11.10;78.70
610;DHT22;292;48.800;9.216;2022-11-15T02:51:37;11.10;78.70
610;DHT22;292;48.800;9.216;2022-11-15T02:54:04;11.10;78.80
610;DHT22;292;48.800;9.216;2022-11-15T02:56:32;11.00;79.00
610;DHT22;292;48.800;9.216;2022-11-15T02:59:24;10.90;79.30
610;DHT22;292;48.800;9.216;2022-11-15T03:02:08;10.90;79.40
610;DHT22;292;48.800;9.216;2022-11-15T03:04:44;10.90;79.40
610;DHT22;292;48.800;9.216;2022-11-15T03:07:15;10.90;79.30
610;DHT22;292;48.800;9.216;2022-11-15T03:09:51;10.80;79.40
610;DHT22;292;48.800;9.216;2022-11-15T03:12:27;10.70;79.70
610;DHT22;292;48.800;9.216;2022-11-15T03:14:58;10.70;79.90
610;DHT22;292;48.800;9.216;2022-11-15T03:17:30;10.70;80.00
610;DHT22;292;48.800;9.216;2022-11-15T03:20:02;10.60;80.00
610;DHT22;292;48.800;9.216;2022-11-15T03:22:33;10.60;80.00
610;DHT22;292;48.800;9.216;2022-11-15T03:25:04;10.60;80.00
610;DHT22;292;48.800;9.216;2022-11-15T03:27:35;10.50;80.10
610;DHT22;292;48.800;9.216;2022-11-15T03:30:06;10.50;80.40
610;DHT22;292;48.800;9.216;2022-11-15T03:32:38;10.50;80.60
610;DHT22;292;48.800;9.216;2022-11-15T03:35:10;10.50;80.60
610;DHT22;292;48.800;9.216;2022-11-15T03:37:49;10.50;80.40
610;DHT22;292;48.800;9.216;2022-11-15T03:40:21;10.50;80.70
610;DHT22;292;48.800;9.216;2022-11-15T03:42:57;10.50;80.70
610;DHT22;292;48.800;9.216;2022-11-15T03:45:29;10.50;80.70
610;DHT22;292;48.800;9.216;2022-11-15T03:48:02;10.50;80.70
610;DHT22;292;48.800;9.216;2022-11-15T03:50:32;10.40;80.90
610;DHT22;292;48.800;9.216;2022-11-15T03:52:59;10.40;81.00
610;DHT22;292;48.800;9.216;2022-11-15T03:55:26;10.40;81.20
610;DHT22;292;48.800;9.216;2022-11-15T03:57:55;10.30;81.20
610;DHT22;292;48.800;9.216;2022-11-15T04:00:24;10.40;81.30
610;DHT22;292;48.800;9.216;2022-11-15T04:02:51;10.30;81.20
610;DHT22;292;48.800;9.216;2022-11-15T04:05:20;10.30;81.20
610;DHT22;292;48.800;9.216;2022-11-15T04:07:47;10.30;81.20
610;DHT22;292;48.800;9.216;2022-11-15T04:10:14;10.30;81.30
610;DHT22;292;48.800;9.216;2022-11-15T04:12:44;10.30;81.30
610;DHT22;292;48.800;9.216;2022-11-15T04:15:15;10.30;81.40
610;DHT22;292;48.800;9.216;2022-11-15T04:17:44;10.30;81.40
610;DHT22;292;48.800;9.216;2022-11-15T04:20:15;10.30;81.40
610;DHT22;292;48.800;9.216;2022-11-15T04:23:03;10.20;81.70
610;DHT22;292;48.800;9.216;2022-11-15T04:25:50;10.30;81.70
610;DHT22;292;48.800;9.216;2022-11-15T04:28:18;10.30;81.70
610;DHT22;292;48.800;9.216;2022-11-15T04:30:45;10.30;81.70
610;DHT22;292;48.800;9.216;2022-11-15T04:33:13;10.30;81.70
610;DHT22;292;48.800;9.216;2022-11-15T04:35:41;10.30;81.70
610;DHT22;292;48.800;9.216;2022-11-15T04:38:11;10.40;81.70
610;DHT22;292;48.800;9.216;2022-11-15T04:40:38;10.40;81.60
610;DHT22;292;48.800;9.216;2022-11-15T04:43:05;10.30;81.70
610;DHT22;292;48.800;9.216;2022-11-15T04:45:32;10.30;81.70
610;DHT22;292;48.800;9.216;2022-11-15T04:47:59;10.30;81.70
610;DHT22;292;48.800;9.216;2022-11-15T04:50:26;10.40;81.70
610;DHT22;292;48.800;9.216;2022-11-15T04:52:54;10.30;81.70
610;DHT22;292;48.800;9.216;2022-11-15T04:55:23;10.30;81.70
610;DHT22;292;48.800;9.216;2022-11-15T04:57:57;10.30;81.90
610;DHT22;292;48.800;9.216;2022-11-15T05:00:25;10.30;81.70
610;DHT22;292;48.800;9.216;2022-11-15T05:02:53;10.30;81.90
610;DHT22;292;48.800;9.216;2022-11-15T05:05:37;10.20;81.90
610;DHT22;292;48.800;9.216;2022-11-15T05:08:04;10.20;81.90
610;DHT22;292;48.800;9.216;2022-11-15T05:10:33;10.20;81.90
610;DHT22;292;48.800;9.216;2022-11-15T05:13:00;10.20;81.90
610;DHT22;292;48.800;9.216;2022-11-15T05:15:28;10.20;81.90
610;DHT22;292;48.800;9.216;2022-11-15T05:17:58;10.20;81.90
610;DHT22;292;48.800;9.216;2022-11-15T05:20:26;10.20;81.90
610;DHT22;292;48.800;9.216;2022-11-15T05:22:53;10.20;81.90
610;DHT22;292;48.800;9.216;2022-11-15T05:25:21;10.20;81.90
610;DHT22;292;48.800;9.216;2022-11-15T05:27:49;10.20;81.90
610;DHT22;292;48.800;9.216;2022-11-15T05:30:17;10.10;81.90
610;DHT22;292;48.800;9.216;2022-11-15T05:32:44;10.10;81.90
610;DHT22;292;48.800;9.216;2022-11-15T05:35:15;10.10;82.00
610;DHT22;292;48.800;9.216;2022-11-15T05:37:44;10.10;82.10
610;DHT22;292;48.800;9.216;2022-11-15T05:40:11;10.10;82.10
610;DHT22;292;48.800;9.216;2022-11-15T05:42:38;10.10;82.10
610;DHT22;292;48.800;9.216;2022-11-15T05:45:08;10.10;82.10
610;DHT22;292;48.800;9.216;2022-11-15T05:47:36;10.10;82.10
610;DHT22;292;48.800;9.216;2022-11-15T05:50:05;10.10;82.10
610;DHT22;292;48.800;9.216;2022-11-15T05:52:35;10.00;82.10
610;DHT22;292;48.800;9.216;2022-11-15T05:55:05;10.00;82.10
610;DHT22;292;48.800;9.216;2022-11-15T05:57:34;10.00;82.20
610;DHT22;292;48.800;9.216;2022-11-15T06:00:02;10.00;82.50
610;DHT22;292;48.800;9.216;2022-11-15T06:02:31;10.00;82.60
610;DHT22;292;48.800;9.216;2022-11-15T06:04:57;10.00;82.60
610;DHT22;292;48.800;9.216;2022-11-15T06:07:24;10.00;82.60
610;DHT22;292;48.800;9.216;2022-11-15T06:09:52;10.00;82.60
610;DHT22;292;48.800;9.216;2022-11-15T06:12:19;10.10;82.60
610;DHT22;292;48.800;9.216;2022-11-15T06:14:46;10.10;82.40
610;DHT22;292;48.800;9.216;2022-11-15T06:17:13;10.10;82.20
610;DHT22;292;48.800;9.216;2022-11-15T06:19:41;10.20;82.20
610;DHT22;292;48.800;9.216;2022-11-15T06:22:09;10.20;82.20
610;DHT22;292;48.800;9.216;2022-11-15T06:24:36;10.20;82.10
610;DHT22;292;48.800;9.216;2022-11-15T06:27:03;10.20;82.00
610;DHT22;292;48.800;9.216;2022-11-15T06:29:30;10.20;82.00
610;DHT22;292;48.800;9.216;2022-11-15T06:31:57;10.30;81.90
610;DHT22;292;48.800;9.216;2022-11-15T06:34:24;10.30;81.70
610;DHT22;292;48.800;9.216;2022-11-15T06:36:52;10.30;81.70
610;DHT22;292;48.800;9.216;2022-11-15T06:39:19;10.30;81.60
610;DHT22;292;48.800;9.216;2022-11-15T06:41:46;10.30;81.60
610;DHT22;292;48.800;9.216;2022-11-15T06:44:13;10.30;81.40
610;DHT22;292;48.800;9.216;2022-11-15T06:46:40;10.30;81.30
610;DHT22;292;48.800;9.216;2022-11-15T06:49:07;10.30;81.30
610;DHT22;292;48.800;9.216;2022-11-15T06:51:34;10.30;81.20
610;DHT22;292;48.800;9.216;2022-11-15T06:54:03;10.30;81.20
610;DHT22;292;48.800;9.216;2022-11-15T06:56:30;10.30;80.90
610;DHT22;292;48.800;9.216;2022-11-15T06:58:57;10.20;80.70
610;DHT22;292;48.800;9.216;2022-11-15T07:01:24;10.20;80.90
610;DHT22;292;48.800;9.216;2022-11-15T07:03:51;10.20;80.70
610;DHT22;292;48.800;9.216;2022-11-15T07:06:18;10.10;80.70
610;DHT22;292;48.800;9.216;2022-11-15T07:08:45;10.10;80.90
610;DHT22;292;48.800;9.216;2022-11-15T07:11:13;10.10;80.90
610;DHT22;292;48.800;9.216;2022-11-15T07:13:40;10.10;80.70
610;DHT22;292;48.800;9.216;2022-11-15T07:16:09;10.10;81.00
610;DHT22;292;48.800;9.216;2022-11-15T07:18:37;10.10;81.00
610;DHT22;292;48.800;9.216;2022-11-15T07:21:07;10.20;81.00
610;DHT22;292;48.800;9.216;2022-11-15T07:23:36;10.20;81.00
610;DHT22;292;48.800;9.216;2022-11-15T07:26:04;10.20;81.00
610;DHT22;292;48.800;9.216;2022-11-15T07:28:32;10.30;81.00
610;DHT22;292;48.800;9.216;2022-11-15T07:31:02;10.30;80.90
610;DHT22;292;48.800;9.216;2022-11-15T07:33:30;10.40;80.70
610;DHT22;292;48.800;9.216;2022-11-15T07:35:59;10.40;80.60
610;DHT22;292;48.800;9.216;2022-11-15T07:38:27;10.40;80.40
610;DHT22;292;48.800;9.216;2022-11-15T07:40:56;10.50;80.10
610;DHT22;292;48.800;9.216;2022-11-15T07:43:23;10.50;80.10
610;DHT22;292;48.800;9.216;2022-11-15T07:45:53;10.50;80.10
610;DHT22;292;48.800;9.216;2022-11-15T07:48:20;10.60;80.00
610;DHT22;292;48.800;9.216;2022-11-15T07:50:48;10.70;80.00
610;DHT22;292;48.800;9.216;2022-11-15T07:53:15;10.70;80.00
610;DHT22;292;48.800;9.216;2022-11-15T07:55:42;10.80;80.00
610;DHT22;292;48.800;9.216;2022-11-15T07:58:11;10.90;80.00
610;DHT22;292;48.800;9.216;2022-11-15T08:00:38;10.90;80.00
610;DHT22;292;48.800;9.216;2022-11-15T08:03:09;11.00;79.70
610;DHT22;292;48.800;9.216;2022-11-15T08:05:38;11.10;79.60
610;DHT22;292;48.800;9.216;2022-11-15T08:08:06;11.10;79.30
610;DHT22;292;48.800;9.216;2022-11-15T08:10:34;11.20;79.10
610;DHT22;292;48.800;9.216;2022-11-15T08:13:03;11.30;79.00
610;DHT22;292;48.800;9.216;2022-11-15T08:15:31;11.30;78.70
610;DHT22;292;48.800;9.216;2022-11-15T08:18:01;11.40;78.60
610;DHT22;292;48.800;9.216;2022-11-15T08:20:32;11.50;78.30
610;DHT22;292;48.800;9.216;2022-11-15T08:23:02;11.50;78.10
610;DHT22;292;48.800;9.216;2022-11-15T08:25:31;11.60;78.00
610;DHT22;292;48.800;9.216;2022-11-15T08:28:02;11.70;77.80
610;DHT22;292;48.800;9.216;2022-11-15T08:30:30;11.70;77.50
610;DHT22;292;48.800;9.216;2022-11-15T08:32:58;11.80;77.40
610;DHT22;292;48.800;9.216;2022-11-15T08:35:26;11.90;77.30
610;DHT22;292;48.800;9.216;2022-11-15T08:37:54;12.00;77.10
610;DHT22;292;48.800;9.216;2022-11-15T08:40:21;12.10;76.80
610;DHT22;292;48.800;9.216;2022-11-15T08:42:48;12.20;76.70
610;DHT22;292;48.800;9.216;2022-11-15T08:45:16;12.30;76.40
610;DHT22;292;48.800;9.216;2022-11-15T08:47:43;12.50;76.20
610;DHT22;292;48.800;9.216;2022-11-15T08:50:10;12.60;75.80
610;DHT22;292;48.800;9.216;2022-11-15T08:52:37;12.70;75.40
610;DHT22;292;48.800;9.216;2022-11-15T08:55:07;12.90;75.10
610;DHT22;292;48.800;9.216;2022-11-15T08:57:34;13.10;74.70
610;DHT22;292;48.800;9.216;2022-11-15T09:00:01;13.30;74.20
610;DHT22;292;48.800;9.216;2022-11-15T09:02:29;13.50;73.80
610;DHT22;292;48.800;9.216;2022-11-15T09:04:56;13.70;73.20
610;DHT22;292;48.800;9.216;2022-11-15T09:07:23;13.90;72.80
610;DHT22;292;48.800;9.216;2022-11-15T09:09:50;14.10;72.40
610;DHT22;292;48.800;9.216;2022-11-15T09:12:19;14.30;71.60
610;DHT22;292;48.800;9.216;2022-11-15T09:14:45;14.50;71.10
610;DHT22;292;48.800;9.216;2022-11-15T09:17:12;14.80;70.60
610;DHT22;292;48.800;9.216;2022-11-15T09:19:40;15.00;69.80
610;DHT22;292;48.800;9.216;2022-11-15T09:22:07;15.10;69.20
610;DHT22;292;48.800;9.216;2022-11-15T09:24:35;15.30;68.50
610;DHT22;292;48.800;9.216;2022-11-15T09:27:02;15.50;67.50
610;DHT22;292;48.800;9.216;2022-11-15T09:29:31;15.60;66.60
610;DHT22;292;48.800;9.216;2022-11-15T09:31:58;15.70;66.00
610;DHT22;292;48.800;9.216;2022-11-15T09:34:25;15.90;65.30
610;DHT22;292;48.800;9.216;2022-11-15T09:36:52;16.00;64.70
610;DHT22;292;48.800;9.216;2022-11-15T09:39:20;16.10;64.30
610;DHT22;292;48.800;9.216;2022-11-15T09:45:15;16.30;63.10
610;DHT22;292;48.800;9.216;2022-11-15T09:48:00;16.50;62.40
610;DHT22;292;48.800;9.216;2022-11-15T09:50:34;16.70;62.00
610;DHT22;292;48.800;9.216;2022-11-15T09:53:03;16.90;61.20
610;DHT22;292;48.800;9.216;2022-11-15T09:55:37;17.00;60.50
610;DHT22;292;48.800;9.216;2022-11-15T09:58:16;17.20;60.00
610;DHT22;292;48.800;9.216;2022-11-15T10:00:49;17.30;59.40
610;DHT22;292;48.800;9.216;2022-11-15T10:03:26;17.50;59.20
610;DHT22;292;48.800;9.216;2022-11-15T10:05:56;17.80;58.50
610;DHT22;292;48.800;9.216;2022-11-15T10:08:51;17.90;58.00
610;DHT22;292;48.800;9.216;2022-11-15T10:11:23;18.00;56.80
610;DHT22;292;48.800;9.216;2022-11-15T10:13:52;18.00;56.50
610;DHT22;292;48.800;9.216;2022-11-15T10:19:26;17.90;55.80
610;DHT22;292;48.800;9.216;2022-11-15T10:22:08;17.80;56.10
610;DHT22;292;48.800;9.216;2022-11-15T10:24:42;17.70;55.80
610;DHT22;292;48.800;9.216;2022-11-15T10:27:11;17.60;56.00
610;DHT22;292;48.800;9.216;2022-11-15T10:29:43;17.40;56.00
610;DHT22;292;48.800;9.216;2022-11-15T10:32:17;17.20;55.40
610;DHT22;292;48.800;9.216;2022-11-15T10:34:45;17.00;56.00
610;DHT22;292;48.800;9.216;2022-11-15T10:37:12;16.90;56.00
610;DHT22;292;48.800;9.216;2022-11-15T10:39:39;16.70;56.40
610;DHT22;292;48.800;9.216;2022-11-15T10:42:25;16.50;56.60
610;DHT22;292;48.800;9.216;2022-11-15T10:44:52;16.40;56.80
610;DHT22;292;48.800;9.216;2022-11-15T10:47:26;16.30;57.20
610;DHT22;292;48.800;9.216;2022-11-15T10:50:00;16.20;57.60
610;DHT22;292;48.800;9.216;2022-11-15T10:52:31;16.20;57.80
610;DHT22;292;48.800;9.216;2022-11-15T10:55:03;16.10;58.10
610;DHT22;292;48.800;9.216;2022-11-15T10:57:33;16.10;58.10
610;DHT22;292;48.800;9.216;2022-11-15T11:00:05;16.10;58.50
610;DHT22;292;48.800;9.216;2022-11-15T11:02:37;16.00;58.60
610;DHT22;292;48.800;9.216;2022-11-15T11:05:07;16.00;58.80
610;DHT22;292;48.800;9.216;2022-11-15T11:07:56;16.00;58.90
610;DHT22;292;48.800;9.216;2022-11-15T11:10:24;15.90;58.90
610;DHT22;292;48.800;9.216;2022-11-15T11:12:52;15.80;59.00
610;DHT22;292;48.800;9.216;2022-11-15T11:15:19;15.80;59.20
610;DHT22;292;48.800;9.216;2022-11-15T11:18:05;15.80;59.30
610;DHT22;292;48.800;9.216;2022-11-15T11:20:38;15.80;59.60
610;DHT22;292;48.800;9.216;2022-11-15T11:23:22;15.80;59.70
610;DHT22;292;48.800;9.216;2022-11-15T11:25:59;15.70;59.80
610;DHT22;292;48.800;9.216;2022-11-15T11:28:39;15.60;59.80
610;DHT22;292;48.800;9.216;2022-11-15T11:31:23;15.60;60.20
610;DHT22;292;48.800;9.216;2022-11-15T11:34:00;15.60;60.40
610;DHT22;292;48.800;9.216;2022-11-15T11:36:35;15.60;60.50
610;DHT22;292;48.800;9.216;2022-11-15T11:39:18;15.60;60.70
610;DHT22;292;48.800;9.216;2022-11-15T11:41:55;15.60;61.00
610;DHT22;292;48.800;9.216;2022-11-15T11:44:30;15.60;61.10
610;DHT22;292;48.800;9.216;2022-11-15T11:47:01;15.60;61.20
610;DHT22;292;48.800;9.216;2022-11-15T11:49:34;15.60;61.40
610;DHT22;292;48.800;9.216;2022-11-15T11:52:10;15.60;61.50
610;DHT22;292;48.800;9.216;2022-11-15T11:54:46;15.70;61.70
610;DHT22;292;48.800;9.216;2022-11-15T11:57:22;15.70;61.70
610;DHT22;292;48.800;9.216;2022-11-15T11:59:55;15.70;61.80
610;DHT22;292;48.800;9.216;2022-11-15T12:02:29;15.70;62.00
610;DHT22;292;48.800;9.216;2022-11-15T12:05:11;15.70;62.00
610;DHT22;292;48.800;9.216;2022-11-15T12:07:40;15.70;62.00
610;DHT22;292;48.800;9.216;2022-11-15T12:10:18;15.70;62.00
610;DHT22;292;48.800;9.216;2022-11-15T12:12:53;15.80;62.10
610;DHT22;292;48.800;9.216;2022-11-15T12:15:24;15.80;62.30
610;DHT22;292;48.800;9.216;2022-11-15T12:17:54;15.80;62.30
610;DHT22;292;48.800;9.216;2022-11-15T12:20:26;15.80;62.40
610;DHT22;292;48.800;9.216;2022-11-15T12:22:58;15.80;62.40
610;DHT22;292;48.800;9.216;2022-11-15T12:25:30;15.90;62.40
610;DHT22;292;48.800;9.216;2022-11-15T12:28:01;15.90;62.40
610;DHT22;292;48.800;9.216;2022-11-15T12:30:42;15.90;62.40
610;DHT22;292;48.800;9.216;2022-11-15T12:33:29;15.90;62.50
610;DHT22;292;48.800;9.216;2022-11-15T12:36:00;15.90;62.50
610;DHT22;292;48.800;9.216;2022-11-15T12:38:50;15.80;62.70
610;DHT22;292;48.800;9.216;2022-11-15T12:41:19;15.80;62.80
610;DHT22;292;48.800;9.216;2022-11-15T12:43:47;15.80;63.00
610;DHT22;292;48.800;9.216;2022-11-15T12:46:22;15.80;63.10
610;DHT22;292;48.800;9.216;2022-11-15T12:48:54;15.80;63.30
610;DHT22;292;48.800;9.216;2022-11-15T12:55:08;15.90;63.60
610;DHT22;292;48.800;9.216;2022-11-15T12:57:49;15.80;63.70
610;DHT22;292;48.800;9.216;2022-11-15T13:00:44;15.80;63.70
610;DHT22;292;48.800;9.216;2022-11-15T13:03:32;15.80;64.00
610;DHT22;292;48.800;9.216;2022-11-15T13:06:07;15.80;64.10
610;DHT22;292;48.800;9.216;2022-11-15T13:08:46;15.80;64.10
610;DHT22;292;48.800;9.216;2022-11-15T13:11:50;15.80;64.10
610;DHT22;292;48.800;9.216;2022-11-15T13:14:43;15.90;64.10
610;DHT22;292;48.800;9.216;2022-11-15T13:20:27;15.80;64.10
610;DHT22;292;48.800;9.216;2022-11-15T13:23:02;15.90;64.10
610;DHT22;292;48.800;9.216;2022-11-15T13:25:57;15.90;64.10
610;DHT22;292;48.800;9.216;2022-11-15T13:28:33;15.90;64.30
610;DHT22;292;48.800;9.216;2022-11-15T13:31:02;15.90;64.30
610;DHT22;292;48.800;9.216;2022-11-15T13:33:31;15.80;64.30
610;DHT22;292;48.800;9.216;2022-11-15T13:36:01;15.80;64.40
610;DHT22;292;48.800;9.216;2022-11-15T13:38:29;15.80;64.60
610;DHT22;292;48.800;9.216;2022-11-15T13:40:58;15.90;64.60
610;DHT22;292;48.800;9.216;2022-11-15T13:43:34;15.90;64.40
610;DHT22;292;48.800;9.216;2022-11-15T13:46:06;15.90;64.40
610;DHT22;292;48.800;9.216;2022-11-15T13:48:34;15.90;64.40
610;DHT22;292;48.800;9.216;2022-11-15T13:51:04;15.90;64.40
610;DHT22;292;48.800;9.216;2022-11-15T13:53:32;15.80;64.40
610;DHT22;292;48.800;9.216;2022-11-15T13:56:00;15.80;64.60
610;DHT22;292;48.800;9.216;2022-11-15T13:58:29;15.80;64.70
610;DHT22;292;48.800;9.216;2022-11-15T14:01:02;15.80;64.70
610;DHT22;292;48.800;9.216;2022-11-15T14:03:32;15.80;64.90
610;DHT22;292;48.800;9.216;2022-11-15T14:06:07;15.80;64.90
610;DHT22;292;48.800;9.216;2022-11-15T14:08:37;15.80;65.00
610;DHT22;292;48.800;9.216;2022-11-15T14:11:12;15.80;65.10
610;DHT22;292;48.800;9.216;2022-11-15T14:13:40;15.80;65.30
610;DHT22;292;48.800;9.216;2022-11-15T14:16:17;15.80;65.40
610;DHT22;292;48.800;9.216;2022-11-15T14:18:47;15.80;65.90
610;DHT22;292;48.800;9.216;2022-11-15T14:21:16;15.70;66.00
610;DHT22;292;48.800;9.216;2022-11-15T14:23:44;15.70;66.30
610;DHT22;292;48.800;9.216;2022-11-15T14:26:27;15.70;66.60
610;DHT22;292;48.800;9.216;2022-11-15T14:28:54;15.70;66.70
610;DHT22;292;48.800;9.216;2022-11-15T14:31:24;15.70;67.00
610;DHT22;292;48.800;9.216;2022-11-15T14:33:51;15.70;67.20
610;DHT22;292;48.800;9.216;2022-11-15T14:36:20;15.60;67.30
610;DHT22;292;48.800;9.216;2022-11-15T14:38:48;15.70;67.50
610;DHT22;292;48.800;9.216;2022-11-15T14:41:20;15.70;67.60
610;DHT22;292;48.800;9.216;2022-11-15T14:43:48;15.70;67.60
610;DHT22;292;48.800;9.216;2022-11-15T14:46:16;15.70;67.70
610;DHT22;292;48.800;9.216;2022-11-15T14:48:45;15.60;67.70
610;DHT22;292;48.800;9.216;2022-11-15T14:51:14;15.60;67.60
610;DHT22;292;48.800;9.216;2022-11-15T14:53:44;15.50;67.60
610;DHT22;292;48.800;9.216;2022-11-15T14:56:12;15.50;67.70
610;DHT22;292;48.800;9.216;2022-11-15T14:58:39;15.50;67.70
610;DHT22;292;48.800;9.216;2022-11-15T15:01:13;15.60;67.50
610;DHT22;292;48.800;9.216;2022-11-15T15:03:40;15.60;67.30
610;DHT22;292;48.800;9.216;2022-11-15T15:06:11;15.60;67.50
610;DHT22;292;48.800;9.216;2022-11-15T15:08:39;15.50;67.20
610;DHT22;292;48.800;9.216;2022-11-15T15:11:10;15.60;67.20
610;DHT22;292;48.800;9.216;2022-11-15T15:13:39;15.60;67.20
610;DHT22;292;48.800;9.216;2022-11-15T15:16:06;15.60;67.20
610;DHT22;292;48.800;9.216;2022-11-15T15:18:34;15.60;67.20
610;DHT22;292;48.800;9.216;2022-11-15T15:21:01;15.60;67.20
610;DHT22;292;48.800;9.216;2022-11-15T15:23:34;15.60;67.20
610;DHT22;292;48.800;9.216;2022-11-15T15:26:01;15.60;67.20
610;DHT22;292;48.800;9.216;2022-11-15T15:28:28;15.50;67.00
610;DHT22;292;48.800;9.216;2022-11-15T15:30:55;15.50;67.20
610;DHT22;292;48.800;9.216;2022-11-15T15:33:23;15.50;67.30
610;DHT22;292;48.800;9.216;2022-11-15T15:35:50;15.50;67.50
610;DHT22;292;48.800;9.216;2022-11-15T15:38:18;15.50;67.50
610;DHT22;292;48.800;9.216;2022-11-15T15:40:47;15.50;67.60
610;DHT22;292;48.800;9.216;2022-11-15T15:43:13;15.50;67.70
610;DHT22;292;48.800;9.216;2022-11-15T15:45:41;15.50;67.70
610;DHT22;292;48.800;9.216;2022-11-15T15:48:11;15.50;67.90
610;DHT22;292;48.800;9.216;2022-11-15T15:50:39;15.50;68.00
610;DHT22;292;48.800;9.216;2022-11-15T15:53:09;15.50;68.00
610;DHT22;292;48.800;9.216;2022-11-15T15:55:37;15.50;68.00
610;DHT22;292;48.800;9.216;2022-11-15T15:58:05;15.50;68.00
610;DHT22;292;48.800;9.216;2022-11-15T16:00:33;15.50;68.20
610;DHT22;292;48.800;9.216;2022-11-15T16:03:00;15.50;68.30
610;DHT22;292;48.800;9.216;2022-11-15T16:05:27;15.50;68.30
610;DHT22;292;48.800;9.216;2022-11-15T16:07:54;15.50;68.30
610;DHT22;292;48.800;9.216;2022-11-15T16:10:23;15.50;68.50
610;DHT22;292;48.800;9.216;2022-11-15T16:12:52;15.50;68.50
610;DHT22;292;48.800;9.216;2022-11-15T16:15:22;15.50;68.50
610;DHT22;292;48.800;9.216;2022-11-15T16:17:51;15.50;68.60
610;DHT22;292;48.800;9.216;2022-11-15T16:20:33;15.50;68.70
610;DHT22;292;48.800;9.216;2022-11-15T16:23:02;15.50;68.90
610;DHT22;292;48.800;9.216;2022-11-15T16:25:31;15.50;68.90
610;DHT22;292;48.800;9.216;2022-11-15T16:27:59;15.50;68.90
610;DHT22;292;48.800;9.216;2022-11-15T16:30:28;15.50;68.70
610;DHT22;292;48.800;9.216;2022-11-15T16:32:55;15.40;68.70
610;DHT22;292;48.800;9.216;2022-11-15T16:35:22;15.40;68.60
610;DHT22;292;48.800;9.216;2022-11-15T16:37:50;15.40;68.50
610;DHT22;292;48.800;9.216;2022-11-15T16:40:25;15.40;68.30
610;DHT22;292;48.800;9.216;2022-11-15T16:42:53;15.40;68.30
610;DHT22;292;48.800;9.216;2022-11-15T16:45:21;15.30;68.20
610;DHT22;292;48.800;9.216;2022-11-15T16:47:50;15.30;68.50
610;DHT22;292;48.800;9.216;2022-11-15T16:50:22;15.30;68.30
610;DHT22;292;48.800;9.216;2022-11-15T16:52:51;15.20;68.30
610;DHT22;292;48.800;9.216;2022-11-15T16:55:19;15.20;68.30
610;DHT22;292;48.800;9.216;2022-11-15T16:57:46;15.20;68.30
610;DHT22;292;48.800;9.216;2022-11-15T17:00:15;15.20;68.50
610;DHT22;292;48.800;9.216;2022-11-15T17:02:43;15.10;68.30
610;DHT22;292;48.800;9.216;2022-11-15T17:05:12;15.10;68.50
610;DHT22;292;48.800;9.216;2022-11-15T17:07:39;15.10;68.60
610;DHT22;292;48.800;9.216;2022-11-15T17:10:08;15.10;68.60
610;DHT22;292;48.800;9.216;2022-11-15T17:12:36;15.20;68.60